createdAt,value
2022-07-25T00:02:49.741Z,101099.38
2022-07-25T00:07:56.155Z,101094.23
2022-07-25T00:13:01.644Z,101092.33
2022-07-25T00:18:07.213Z,101083.59
2022-07-25T00:23:12.635Z,101080.67
2022-07-25T00:28:18.081Z,101074.31
2022-07-25T00:33:23.596Z,101071.55
2022-07-25T00:38:29.183Z,101063.98
2022-07-25T00:43:35.016Z,101067.41
2022-07-25T00:48:40.662Z,101068.92
2022-07-25T00:53:46.597Z,101062.90
2022-07-25T00:58:52.824Z,101059.11
2022-07-25T01:03:58.495Z,101057.05
2022-07-25T01:09:04.759Z,101056.34
2022-07-25T01:14:10.315Z,101052.06
2022-07-25T01:19:15.772Z,101047.96
2022-07-25T01:24:21.213Z,101048.27
2022-07-25T01:29:26.722Z,101038.53
2022-07-25T01:34:32.278Z,101037.17
2022-07-25T01:39:37.707Z,101024.05
2022-07-25T01:44:43.313Z,101015.92
2022-07-25T01:49:49.118Z,101014.20
2022-07-25T01:54:54.535Z,101007.23
2022-07-25T02:00:00.793Z,101005.53
2022-07-25T02:05:11.352Z,101006.73
2022-07-25T02:10:16.843Z,100999.41
2022-07-25T02:15:22.270Z,100993.45
2022-07-25T02:20:27.849Z,100988.36
2022-07-25T02:25:34.393Z,100979.98
2022-07-25T02:30:40.313Z,100991.39
2022-07-25T02:35:45.860Z,100980.14
2022-07-25T02:40:52.622Z,100966.87
2022-07-25T02:45:58.287Z,100970.45
2022-07-25T02:51:03.972Z,100963.80
2022-07-25T02:56:09.476Z,100971.11
2022-07-25T03:01:15.137Z,100965.16
2022-07-25T03:06:20.803Z,100957.99
2022-07-25T03:11:26.246Z,100961.06
2022-07-25T03:16:31.803Z,100948.30
2022-07-25T03:21:41.178Z,100961.42
2022-07-25T03:26:46.688Z,100945.42
2022-07-25T03:31:52.215Z,100952.58
2022-07-25T03:36:57.712Z,100944.41
2022-07-25T03:42:03.155Z,100950.20
2022-07-25T03:47:08.950Z,100944.09
2022-07-25T03:52:16.105Z,100936.81
2022-07-25T03:57:21.613Z,100931.27
2022-07-25T04:02:27.354Z,100929.59
2022-07-25T04:07:32.783Z,100925.16
2022-07-25T04:12:39.060Z,100927.37
2022-07-25T04:17:44.491Z,100915.80
2022-07-25T04:22:51.153Z,100912.91
2022-07-25T04:27:56.587Z,100906.45
2022-07-25T04:33:02.021Z,100898.64
2022-07-25T04:38:11.939Z,100899.84
2022-07-25T04:43:14.684Z,100885.73
2022-07-25T04:48:20.245Z,100881.37
2022-07-25T04:53:25.703Z,100877.53
2022-07-25T04:58:32.303Z,100877.63
2022-07-25T05:03:37.741Z,100867.91
2022-07-25T05:08:43.181Z,100869.30
2022-07-25T05:13:49.278Z,100861.95
2022-07-25T05:18:54.732Z,100857.85
2022-07-25T05:24:00.236Z,100851.72
2022-07-25T05:29:05.743Z,100845.88
2022-07-25T05:34:11.325Z,100852.02
2022-07-25T05:39:17.408Z,100846.51
2022-07-25T05:44:22.925Z,100844.06
2022-07-25T05:49:28.424Z,100840.30
2022-07-25T05:54:34.788Z,100838.36
2022-07-25T05:59:40.298Z,100834.22
2022-07-25T06:04:45.762Z,100821.69
2022-07-25T06:09:51.193Z,100812.34
2022-07-25T06:14:56.785Z,100812.23
2022-07-25T06:20:02.647Z,100807.07
2022-07-25T06:25:10.062Z,100798.41
2022-07-25T06:30:20.155Z,100799.39
2022-07-25T06:35:23.196Z,100799.34
2022-07-25T06:40:28.946Z,100788.13
2022-07-25T06:45:34.443Z,100784.11
2022-07-25T06:50:39.874Z,100773.56
2022-07-25T06:55:45.673Z,100774.34
2022-07-25T07:00:51.352Z,100772.02
2022-07-25T07:05:56.840Z,100771.42
2022-07-25T07:11:02.477Z,100756.48
2022-07-25T07:16:08.249Z,100755.98
2022-07-25T07:21:20.955Z,100744.33
2022-07-25T07:26:21.101Z,100740.98
2022-07-25T07:31:27.698Z,100721.76
2022-07-25T07:36:33.380Z,100724.45
2022-07-25T07:41:38.881Z,100702.98
2022-07-25T07:46:44.483Z,100714.09
2022-07-25T07:51:50.084Z,100708.38
2022-07-25T07:56:55.794Z,100696.16
2022-07-25T08:02:01.380Z,100697.01
2022-07-25T08:07:06.844Z,100692.13
2022-07-25T08:12:12.299Z,100683.64
2022-07-25T08:17:17.812Z,100669.47
2022-07-25T08:22:23.723Z,100664.72
2022-07-25T08:27:29.218Z,100668.09
2022-07-25T08:32:35.066Z,100661.87
2022-07-25T08:37:40.496Z,100654.30
2022-07-25T08:42:46.464Z,100652.98
2022-07-25T08:47:54.679Z,100656.20
2022-07-25T08:53:30.422Z,100647.34
2022-07-25T08:58:07.491Z,100647.86
2022-07-25T09:03:13.543Z,100637.39
2022-07-25T09:08:19.736Z,100628.20
2022-07-25T09:13:25.258Z,100633.09
2022-07-25T09:18:32.331Z,100628.64
2022-07-25T09:23:40.078Z,100620.91
2022-07-25T09:28:47.218Z,100611.77
2022-07-25T09:33:59.899Z,100598.36
2022-07-25T09:39:06.642Z,100598.28
2022-07-25T09:44:23.849Z,100589.95
2022-07-25T09:49:41.198Z,100576.73
2022-07-25T09:54:46.646Z,100578.07
2022-07-25T09:59:52.151Z,100574.06
2022-07-25T10:05:15.972Z,100565.11
2022-07-25T10:10:27.270Z,100556.45
2022-07-25T10:15:47.703Z,100547.97
2022-07-25T10:20:56.520Z,100549.33
2022-07-25T10:26:05.137Z,100534.52
2022-07-25T10:31:25.652Z,100524.14
2022-07-25T10:36:45.965Z,100525.15
2022-07-25T10:41:59.389Z,100519.36
2022-07-25T10:47:10.406Z,100509.20
2022-07-25T10:52:18.708Z,100496.98
2022-07-25T10:57:27.209Z,100490.23
2022-07-25T11:02:32.847Z,100477.99
2022-07-25T11:07:38.446Z,100463.66
2022-07-25T11:12:45.874Z,100462.12
2022-07-25T11:17:53.193Z,100452.95
2022-07-25T11:22:58.783Z,100460.03
2022-07-25T11:28:04.363Z,100446.60
2022-07-25T11:33:14.484Z,100424.27
2022-07-25T11:38:18.564Z,100435.55
2022-07-25T11:43:26.150Z,100423.84
2022-07-25T11:48:34.373Z,100403.02
2022-07-25T11:53:45.279Z,100400.84
2022-07-25T11:59:01.228Z,100383.21
2022-07-25T12:04:11.933Z,100373.88
2022-07-25T12:09:20.573Z,100372.63
2022-07-25T12:14:26.906Z,100369.93
2022-07-25T12:19:32.433Z,100348.00
2022-07-25T12:24:37.880Z,100354.66
2022-07-25T12:29:43.335Z,100342.92
2022-07-25T12:34:48.770Z,100334.44
2022-07-25T12:39:55.155Z,100329.39
2022-07-25T12:45:00.644Z,100318.32
2022-07-25T12:50:07.537Z,100321.05
2022-07-25T12:55:15.917Z,100302.19
2022-07-25T13:00:23.380Z,100297.61
2022-07-25T13:05:29.876Z,100286.57
2022-07-25T13:10:35.418Z,100280.34
2022-07-25T13:15:41.015Z,100270.96
2022-07-25T13:20:46.456Z,100272.09
2022-07-25T13:25:51.943Z,100259.99
2022-07-25T13:30:57.437Z,100254.48
2022-07-25T13:36:02.878Z,100236.93
2022-07-25T13:41:08.744Z,100234.41
2022-07-25T13:46:14.666Z,100223.08
2022-07-25T13:51:20.197Z,100225.39
2022-07-25T13:56:26.022Z,100215.83
2022-07-25T14:01:31.621Z,100224.56
2022-07-25T14:06:37.445Z,100214.53
2022-07-25T14:11:42.891Z,100207.59
2022-07-25T14:16:48.973Z,100204.25
2022-07-25T14:21:54.501Z,100196.55
2022-07-25T14:27:00.646Z,100185.80
2022-07-25T14:32:07.938Z,100188.75
2022-07-25T14:37:14.416Z,100170.25
2022-07-25T14:42:20.017Z,100177.88
2022-07-25T14:47:27.271Z,100165.22
2022-07-25T14:52:32.851Z,100161.00
2022-07-25T14:57:38.657Z,100145.41
2022-07-25T15:02:44.149Z,100140.50
2022-07-25T15:07:49.673Z,100133.27
2022-07-25T15:13:20.472Z,100116.33
2022-07-25T15:18:02.239Z,100118.84
2022-07-25T15:23:07.751Z,100117.70
2022-07-25T15:28:14.014Z,100117.70
2022-07-25T15:33:20.543Z,100099.04
2022-07-25T15:38:26.354Z,100092.03
2022-07-25T15:43:33.380Z,100082.21
2022-07-25T15:48:39.053Z,100064.56
2022-07-25T15:53:44.651Z,100045.27
2022-07-25T15:58:50.613Z,100046.25
2022-07-25T16:03:57.711Z,100039.12
2022-07-25T16:09:03.627Z,100023.52
2022-07-25T16:14:10.002Z,100027.77
2022-07-25T16:19:15.499Z,100027.48
2022-07-25T16:24:21.000Z,100025.22
2022-07-25T16:29:27.004Z,100003.80
2022-07-25T16:34:33.915Z,100006.55
2022-07-25T16:39:39.432Z,100005.69
2022-07-25T16:44:45.049Z,99990.52
2022-07-25T16:49:50.565Z,99997.38
2022-07-25T16:54:56.018Z,99986.89
2022-07-25T17:00:01.537Z,99973.14
2022-07-25T17:05:07.482Z,99972.05
2022-07-25T17:10:13.285Z,99968.55
2022-07-25T17:15:20.305Z,99962.78
2022-07-25T17:20:26.214Z,99967.30
2022-07-25T17:25:31.709Z,99972.30
2022-07-25T17:30:37.218Z,99965.39
2022-07-25T17:35:42.804Z,99946.59
2022-07-25T17:40:48.223Z,99944.33
2022-07-25T17:45:53.666Z,99946.52
2022-07-25T17:50:59.097Z,99953.12
2022-07-25T17:56:04.979Z,99961.14
2022-07-25T18:01:11.450Z,99966.45
2022-07-25T18:06:17.262Z,100018.82
2022-07-25T18:11:22.807Z,100015.84
2022-07-25T18:16:28.498Z,100029.63
2022-07-25T18:21:34.130Z,100049.82
2022-07-25T18:26:41.112Z,100089.91
2022-07-25T18:31:49.650Z,100085.05
2022-07-25T18:36:55.266Z,100076.47
2022-07-25T18:42:00.792Z,100061.05
2022-07-25T18:47:07.067Z,100071.29
2022-07-25T18:52:13.383Z,100061.84
2022-07-25T18:57:19.049Z,100056.23
2022-07-25T19:02:24.963Z,100061.17
2022-07-25T19:07:31.311Z,100079.93
2022-07-25T19:12:37.201Z,100089.28
2022-07-25T19:17:42.777Z,100078.44
2022-07-25T19:22:48.297Z,100095.06
2022-07-25T19:27:54.114Z,100077.91
2022-07-25T19:32:59.571Z,100082.89
2022-07-25T19:38:08.241Z,100092.08
2022-07-25T19:43:16.064Z,100101.14
2022-07-25T19:48:23.283Z,100095.13
2022-07-25T19:53:30.611Z,100105.14
2022-07-25T19:58:38.977Z,100097.27
2022-07-25T20:03:43.352Z,100080.67
2022-07-25T20:08:49.229Z,100074.53
2022-07-25T20:13:54.881Z,100058.05
2022-07-25T20:19:00.725Z,100060.52
2022-07-25T20:24:06.409Z,100068.59
2022-07-25T20:29:11.902Z,100084.87
2022-07-25T20:34:19.518Z,100117.73
2022-07-25T20:39:26.443Z,100172.66
2022-07-25T20:44:33.689Z,100193.30
2022-07-25T20:49:39.159Z,100188.01
2022-07-25T20:54:44.598Z,100180.53
2022-07-25T20:59:51.079Z,100170.42
2022-07-25T21:04:56.887Z,100154.84
2022-07-25T21:10:02.450Z,100153.28
2022-07-25T21:15:09.818Z,100160.53
2022-07-25T21:20:16.196Z,100172.29
2022-07-25T21:25:22.070Z,100173.20
2022-07-25T21:30:27.705Z,100182.54
2022-07-25T21:35:33.174Z,100186.95
2022-07-25T21:40:41.442Z,100195.69
2022-07-25T21:45:47.206Z,100204.14
2022-07-25T21:50:52.919Z,100226.33
2022-07-25T21:55:58.533Z,100237.59
2022-07-25T22:01:04.147Z,100217.55
2022-07-25T22:06:10.374Z,100194.23
2022-07-25T22:11:38.508Z,100194.08
2022-07-25T22:16:24.244Z,100200.91
2022-07-25T22:21:29.955Z,100212.63
2022-07-25T22:26:35.556Z,100234.30
2022-07-25T22:31:41.161Z,100239.98
2022-07-25T22:36:46.741Z,100256.69
2022-07-25T22:41:52.498Z,100269.89
2022-07-25T22:46:58.039Z,100266.45
2022-07-25T22:52:03.681Z,100302.57
2022-07-25T22:57:09.231Z,100324.34
2022-07-25T23:02:14.691Z,100303.80
2022-07-25T23:07:20.172Z,100266.55
2022-07-25T23:12:25.781Z,100254.55
2022-07-25T23:17:31.414Z,100256.95
2022-07-25T23:22:36.865Z,100259.88
2022-07-25T23:27:42.337Z,100257.19
2022-07-25T23:32:47.940Z,100287.08
2022-07-25T23:37:53.369Z,100292.02
2022-07-25T23:42:58.889Z,100376.27
2022-07-25T23:48:05.926Z,100409.06
2022-07-25T23:53:11.471Z,100373.16
2022-07-25T23:58:16.977Z,100360.73
